Time,TemperatureF,DewpointF,PressureIn,WindDirection,WindDirectionDegrees,WindSpeedMPH,WindSpeedGustMPH,Humidity,HourlyPrecipIn,Conditions,Clouds,dailyrainin,SoftwareType,DateUTC
2013-03-15 00:14:00,29.8,14.3,29.83,ESE,112,3.2,-999.0,52,-99.99,,,0.00,Acu-Link.com,2013-03-15 04:14:00,
2013-03-15 00:29:00,29.7,13.8,29.82,WSW,247,4.7,-999.0,51,-99.99,,,0.00,Acu-Link.com,2013-03-15 04:29:00,
2013-03-15 00:45:00,30.0,13.6,29.82,ESE,112,2.7,-999.0,50,-99.99,,,0.00,Acu-Link.com,2013-03-15 04:45:00,
2013-03-15 01:00:00,29.8,13.9,29.82,West,270,2.7,-999.0,51,-99.99,,,0.00,Acu-Link.com,2013-03-15 05:00:00,
2013-03-15 01:15:00,29.5,13.6,29.82,SE,135,5.3,-999.0,51,-99.99,,,0.00,Acu-Link.com,2013-03-15 05:15:00,
2013-03-15 01:30:00,29.5,13.6,29.83,NNE,22,2.7,-999.0,51,-99.99,,,0.00,Acu-Link.com,2013-03-15 05:30:00,
2013-03-15 01:45:00,29.5,13.2,29.82,NNW,337,6.3,-999.0,50,-99.99,,,0.00,Acu-Link.com,2013-03-15 05:45:00,
2013-03-15 02:01:00,29.1,12.8,29.83,South,180,4.7,-999.0,50,-99.99,,,0.00,Acu-Link.com,2013-03-15 06:01:00,
2013-03-15 02:47:00,29.1,12.8,29.83,West,270,3.7,-999.0,50,-99.99,,,0.00,Acu-Link.com,2013-03-15 06:47:00,
2013-03-15 03:02:00,28.9,13.5,29.83,West,270,4.7,-999.0,52,-99.99,,,0.00,Acu-Link.com,2013-03-15 07:02:00,
2013-03-15 03:17:00,28.9,13.9,29.83,NNW,337,2.2,-999.0,53,-99.99,,,0.00,Acu-Link.com,2013-03-15 07:17:00,
2013-03-15 03:32:00,28.9,13.9,29.83,NNW,337,3.2,-999.0,53,-99.99,,,0.00,Acu-Link.com,2013-03-15 07:32:00,
2013-03-15 03:47:00,28.8,14.3,29.82,SW,225,9.4,-999.0,54,-99.99,,,0.00,Acu-Link.com,2013-03-15 07:47:00,
2013-03-15 04:03:00,28.6,14.5,29.83,West,270,1.7,-999.0,55,-99.99,,,0.00,Acu-Link.com,2013-03-15 08:03:00,
2013-03-15 04:18:00,28.6,14.5,29.83,West,270,5.8,-999.0,55,-99.99,,,0.00,Acu-Link.com,2013-03-15 08:18:00,
2013-03-15 04:33:00,28.6,14.1,29.83,SSW,202,5.8,-999.0,54,-99.99,,,0.00,Acu-Link.com,2013-03-15 08:33:00,
2013-03-15 04:48:00,28.4,13.5,29.83,East,90,5.3,-999.0,53,-99.99,,,0.00,Acu-Link.com,2013-03-15 08:48:00,
2013-03-15 05:03:00,28.2,12.4,29.84,South,180,4.2,-999.0,51,-99.99,,,0.00,Acu-Link.com,2013-03-15 09:03:00,
2013-03-15 05:18:00,27.9,12.1,29.83,SE,135,2.7,-999.0,51,-99.99,,,0.00,Acu-Link.com,2013-03-15 09:18:00,
2013-03-15 05:34:00,27.7,11.1,29.84,West,270,5.8,-999.0,49,-99.99,,,0.00,Acu-Link.com,2013-03-15 09:34:00,
2013-03-15 05:49:00,27.3,11.1,29.85,WSW,247,6.3,-999.0,50,-99.99,,,0.00,Acu-Link.com,2013-03-15 09:49:00,
2013-03-15 06:04:00,27.1,11.0,29.85,ESE,112,3.2,-999.0,50,-99.99,,,0.00,Acu-Link.com,2013-03-15 10:04:00,
2013-03-15 06:19:00,26.8,11.1,29.86,West,270,2.2,-999.0,51,-99.99,,,0.00,Acu-Link.com,2013-03-15 10:19:00,
2013-03-15 06:35:00,26.6,10.9,29.86,WSW,247,6.8,-999.0,51,-99.99,,,0.00,Acu-Link.com,2013-03-15 10:35:00,
2013-03-15 06:50:00,26.8,10.7,29.88,West,270,9.4,-999.0,50,-99.99,,,0.00,Acu-Link.com,2013-03-15 10:50:00,
2013-03-15 07:05:00,26.6,10.9,29.87,South,180,2.7,-999.0,51,-99.99,,,0.00,Acu-Link.com,2013-03-15 11:05:00,
2013-03-15 07:20:00,27.0,10.4,29.88,West,270,6.8,-999.0,49,-99.99,,,0.00,Acu-Link.com,2013-03-15 11:20:00,
2013-03-15 07:36:00,26.8,10.2,29.88,West,270,2.2,-999.0,49,-99.99,,,0.00,Acu-Link.com,2013-03-15 11:36:00,
2013-03-15 08:22:00,29.7,11.5,29.87,NE,45,2.7,-999.0,46,-99.99,,,0.00,Acu-Link.com,2013-03-15 12:22:00,
2013-03-15 08:37:00,29.1,11.4,29.87,SE,135,0.0,-999.0,47,-99.99,,,0.00,Acu-Link.com,2013-03-15 12:37:00,
2013-03-15 08:52:00,28.9,11.7,29.87,West,270,4.7,-999.0,48,-99.99,,,0.00,Acu-Link.com,2013-03-15 12:52:00,
2013-03-15 09:07:00,29.3,12.1,29.87,WSW,247,1.7,-999.0,48,-99.99,,,0.00,Acu-Link.com,2013-03-15 13:07:00,
2013-03-15 09:23:00,29.8,11.1,29.87,West,270,1.7,-999.0,45,-99.99,,,0.00,Acu-Link.com,2013-03-15 13:23:00,
2013-03-15 09:38:00,30.4,11.1,29.87,WSW,247,7.3,-999.0,44,-99.99,,,0.00,Acu-Link.com,2013-03-15 13:38:00,
2013-03-15 09:53:00,30.6,11.3,29.87,West,270,5.8,-999.0,44,-99.99,,,0.00,Acu-Link.com,2013-03-15 13:53:00,
2013-03-15 10:08:00,31.5,11.6,29.86,NNE,22,1.7,-999.0,43,-99.99,,,0.00,Acu-Link.com,2013-03-15 14:08:00,
2013-03-15 10:24:00,32.4,11.9,29.86,ESE,112,1.1,-999.0,42,-99.99,,,0.00,Acu-Link.com,2013-03-15 14:24:00,
2013-03-15 10:39:00,34.2,12.4,29.86,SW,225,7.8,-999.0,40,-99.99,,,0.00,Acu-Link.com,2013-03-15 14:39:00,
2013-03-15 10:54:00,34.9,13.1,29.84,WSW,247,3.2,-999.0,40,-99.99,,,0.00,Acu-Link.com,2013-03-15 14:54:00,
2013-03-15 11:10:00,35.4,12.9,29.84,NNE,22,2.7,-999.0,39,-99.99,,,0.00,Acu-Link.com,2013-03-15 15:10:00,
2013-03-15 11:25:00,36.3,13.7,29.83,North,0,1.7,-999.0,39,-99.99,,,0.00,Acu-Link.com,2013-03-15 15:25:00,
2013-03-15 11:40:00,38.3,15.5,29.83,SW,225,3.7,-999.0,39,-99.99,,,0.00,Acu-Link.com,2013-03-15 15:40:00,
2013-03-15 11:55:00,38.1,15.4,29.81,SSW,202,3.7,-999.0,39,-99.99,,,0.00,Acu-Link.com,2013-03-15 15:55:00,
2013-03-15 12:10:00,36.7,15.2,29.81,NNW,337,5.8,-999.0,41,-99.99,,,0.00,Acu-Link.com,2013-03-15 16:10:00,
2013-03-15 12:25:00,38.3,18.3,29.80,SSE,157,2.7,-999.0,44,-99.99,,,0.00,Acu-Link.com,2013-03-15 16:25:00,
2013-03-15 12:41:00,37.8,17.9,29.79,West,270,4.7,-999.0,44,-99.99,,,0.00,Acu-Link.com,2013-03-15 16:41:00,
2013-03-15 12:56:00,38.7,19.2,29.78,WSW,247,4.2,-999.0,45,-99.99,,,0.00,Acu-Link.com,2013-03-15 16:56:00,
2013-03-15 13:26:00,36.7,19.4,29.76,WNW,292,4.2,-999.0,49,-99.99,,,0.00,Acu-Link.com,2013-03-15 17:26:00,
2013-03-15 13:42:00,36.3,19.0,29.75,South,180,4.7,-999.0,49,-99.99,,,0.00,Acu-Link.com,2013-03-15 17:42:00,
2013-03-15 13:57:00,37.8,19.9,29.74,SSW,202,5.3,-999.0,48,-99.99,,,0.00,Acu-Link.com,2013-03-15 17:57:00,
2013-03-15 14:12:00,38.8,20.3,29.73,SSW,202,6.8,-999.0,47,-99.99,,,0.00,Acu-Link.com,2013-03-15 18:12:00,
2013-03-15 14:27:00,39.4,19.3,29.73,SW,225,4.2,-999.0,44,-99.99,,,0.00,Acu-Link.com,2013-03-15 18:27:00,
2013-03-15 14:43:00,40.6,20.4,29.71,SW,225,5.8,-999.0,44,-99.99,,,0.00,Acu-Link.com,2013-03-15 18:43:00,
2013-03-15 14:58:00,42.3,19.7,29.70,West,270,7.8,-999.0,40,-99.99,,,0.00,Acu-Link.com,2013-03-15 18:58:00,
2013-03-15 15:13:00,42.4,19.2,29.69,WSW,247,5.8,-999.0,39,-99.99,,,0.00,Acu-Link.com,2013-03-15 19:13:00,
2013-03-15 15:28:00,43.2,21.1,29.68,West,270,9.4,-999.0,41,-99.99,,,0.00,Acu-Link.com,2013-03-15 19:28:00,
2013-03-15 15:43:00,41.7,20.9,29.67,NW,315,4.7,-999.0,43,-99.99,,,0.00,Acu-Link.com,2013-03-15 19:43:00,
2013-03-15 15:59:00,42.4,22.6,29.66,SSE,157,8.3,-999.0,45,-99.99,,,0.00,Acu-Link.com,2013-03-15 19:59:00,
2013-03-15 16:14:00,42.6,22.8,29.65,SE,135,6.3,-999.0,45,-99.99,,,0.00,Acu-Link.com,2013-03-15 20:14:00,
2013-03-15 16:29:00,41.5,24.3,29.64,West,270,14.5,-999.0,50,-99.99,,,0.00,Acu-Link.com,2013-03-15 20:29:00,
2013-03-15 16:44:00,40.8,25.0,29.64,WNW,292,3.2,-999.0,53,-99.99,,,0.00,Acu-Link.com,2013-03-15 20:44:00,
2013-03-15 16:59:00,40.3,25.0,29.63,NE,45,4.7,-999.0,54,-99.99,,,0.00,Acu-Link.com,2013-03-15 20:59:00,
2013-03-15 17:14:00,40.1,26.1,29.63,WNW,292,14.0,-999.0,57,-99.99,,,0.00,Acu-Link.com,2013-03-15 21:14:00,
2013-03-15 17:29:00,39.9,26.3,29.63,South,180,4.2,-999.0,58,-99.99,,,0.00,Acu-Link.com,2013-03-15 21:29:00,
2013-03-15 17:44:00,39.7,27.0,29.62,South,180,4.7,-999.0,60,-99.99,,,0.00,Acu-Link.com,2013-03-15 21:44:00,
2013-03-15 17:59:00,39.9,27.2,29.62,West,270,8.9,-999.0,60,-99.99,,,0.00,Acu-Link.com,2013-03-15 21:59:00,
2013-03-15 18:15:00,39.9,26.8,29.63,West,270,14.5,-999.0,59,-99.99,,,0.00,Acu-Link.com,2013-03-15 22:15:00,
2013-03-15 18:30:00,40.3,26.7,29.62,WNW,292,5.3,-999.0,58,-99.99,,,0.00,Acu-Link.com,2013-03-15 22:30:00,
2013-03-15 18:45:00,40.3,26.3,29.62,South,180,5.8,-999.0,57,-99.99,,,0.00,Acu-Link.com,2013-03-15 22:45:00,
2013-03-15 19:00:00,40.1,25.7,29.62,West,270,4.2,-999.0,56,-99.99,,,0.00,Acu-Link.com,2013-03-15 23:00:00,
2013-03-15 19:15:00,40.3,26.3,29.62,West,270,2.7,-999.0,57,-99.99,,,0.00,Acu-Link.com,2013-03-15 23:15:00,
2013-03-15 19:31:00,40.1,26.9,29.63,NE,45,1.1,-999.0,59,-99.99,,,0.00,Acu-Link.com,2013-03-15 23:31:00,
2013-03-15 19:46:00,39.9,27.2,29.63,ESE,112,4.2,-999.0,60,-99.99,,,0.00,Acu-Link.com,2013-03-15 23:46:00,
2013-03-15 20:17:00,39.0,27.5,29.63,WNW,292,2.2,-999.0,63,-99.99,,,0.00,Acu-Link.com,2013-03-16 00:17:00,
2013-03-15 20:32:00,39.2,28.1,29.63,NNW,337,7.3,-999.0,64,-99.99,,,0.00,Acu-Link.com,2013-03-16 00:32:00,
2013-03-15 20:47:00,39.0,28.6,29.63,North,0,1.7,-999.0,66,-99.99,,,0.00,Acu-Link.com,2013-03-16 00:47:00,
2013-03-15 21:03:00,39.0,29.3,29.63,West,270,3.7,-999.0,68,-99.99,,,0.00,Acu-Link.com,2013-03-16 01:03:00,
2013-03-15 21:18:00,39.0,29.7,29.63,WSW,247,6.3,-999.0,69,-99.99,,,0.00,Acu-Link.com,2013-03-16 01:18:00,
2013-03-15 21:34:00,38.7,29.8,29.63,SW,225,3.7,-999.0,70,-99.99,,,0.00,Acu-Link.com,2013-03-16 01:34:00,
2013-03-15 21:49:00,38.3,29.7,29.63,SW,225,3.2,-999.0,71,-99.99,,,0.00,Acu-Link.com,2013-03-16 01:49:00,
2013-03-15 22:04:00,38.1,29.5,29.64,NNE,22,3.2,-999.0,71,-99.99,,,0.00,Acu-Link.com,2013-03-16 02:04:00,
2013-03-15 22:19:00,38.1,29.5,29.64,NNE,22,1.1,-999.0,71,-99.99,,,0.00,Acu-Link.com,2013-03-16 02:19:00,
2013-03-15 22:35:00,37.6,29.1,29.64,WSW,247,4.7,-999.0,71,-99.99,,,0.00,Acu-Link.com,2013-03-16 02:35:00,
2013-03-15 22:50:00,36.9,28.7,29.64,SW,225,9.9,-999.0,72,-99.99,,,0.00,Acu-Link.com,2013-03-16 02:50:00,
2013-03-15 23:05:00,37.4,28.5,29.64,West,270,6.8,-999.0,70,-99.99,,,0.00,Acu-Link.com,2013-03-16 03:05:00,
2013-03-15 23:36:00,36.3,27.8,29.64,NNW,337,0.0,-999.0,71,-99.99,,,0.00,Acu-Link.com,2013-03-16 03:36:00,
2013-03-15 23:52:00,36.1,27.6,29.64,West,270,3.7,-999.0,71,-99.99,,,0.00,Acu-Link.com,2013-03-16 03:52:00,